WXM80 ListenWXM80 Stop

You find our weather info also at:

UK Metoffice

WeatherCloud

Weather Underground

Northeastern Weather Network

AWEKAS

Citizen Weather Observer Program (CWOP)

HAMweather, WeatherForYou, PWS Weather


Weather Underground History page Text

Daily Summary for June 7, 2017 Units:  English    Metric   Both
« Previous Day
Next Day »
Daily Weekly Monthly Yearly Custom
  High: Low: Average:
Temperature: 73.8 °F 52.1 °F 61.3 °F
Dew Point: 58.3 °F 49.1 °F 52.3 °F
Humidity: 92 % 46 % 75 %
Wind Speed: 7.4 mph 0.0 mph 2.1 mph
Wind Gust: 13.0 mph - -
Wind:- - SE
Pressure: 29.99 in 29.89 in -
Precipitation: 0.00 in    
Historical Graphs
 
 
Tabular Data for June 7, 2017
Time Temperature Dew Point Pressure Wind Wind Speed Wind Gust Humidity Rainfall Rate (Hourly)
00:03 52.4 °F 49.3 °F 29.89 in ENE 4.0 mph 5.0 mph 89 % 0.00 in
00:07 52.4 °F 49.3 °F 29.89 in NE 3.3 mph 4.0 mph 89 % 0.00 in
00:13 52.5 °F 49.4 °F 29.90 in ENE 3.7 mph 6.9 mph 89 % 0.00 in
00:15 52.5 °F 49.4 °F 29.90 in East 5.8 mph 11.0 mph 89 % 0.00 in
00:20 52.6 °F 49.4 °F 29.89 in ENE 4.4 mph 8.1 mph 89 % 0.00 in
00:25 52.7 °F 49.2 °F 29.89 in East 3.5 mph 10.4 mph 88 % 0.00 in
00:30 52.7 °F 49.5 °F 29.89 in ENE 6.0 mph 7.0 mph 89 % 0.00 in
00:36 52.8 °F 49.6 °F 29.89 in ENE 5.0 mph 12.0 mph 89 % 0.00 in
00:41 52.8 °F 49.6 °F 29.89 in ENE 6.0 mph 10.0 mph 89 % 0.00 in
00:46 52.7 °F 49.6 °F 29.89 in ENE 5.0 mph 10.0 mph 89 % 0.00 in
00:51 52.7 °F 49.6 °F 29.89 in ENE 3.0 mph 10.0 mph 89 % 0.00 in
00:56 52.7 °F 49.5 °F 29.89 in ENE 6.7 mph 10.4 mph 89 % 0.00 in
01:01 52.7 °F 49.5 °F 29.90 in ENE 7.0 mph 7.0 mph 89 % 0.00 in
01:06 52.7 °F 49.5 °F 29.90 in ENE 7.0 mph 13.0 mph 89 % 0.00 in
01:11 52.6 °F 49.1 °F 29.89 in East 7.0 mph 12.0 mph 88 % 0.00 in
01:16 52.6 °F 49.4 °F 29.90 in ENE 7.0 mph 13.0 mph 89 % 0.00 in
01:21 52.6 °F 49.1 °F 29.90 in ENE 4.5 mph 11.5 mph 88 % 0.00 in
01:26 52.6 °F 49.4 °F 29.90 in ENE 3.4 mph 8.1 mph 89 % 0.00 in
01:31 52.6 °F 49.4 °F 29.90 in NNE 3.2 mph 8.1 mph 89 % 0.00 in
01:36 52.6 °F 49.4 °F 29.90 in NNE 3.8 mph 10.4 mph 89 % 0.00 in
01:41 52.5 °F 49.4 °F 29.90 in NE 3.1 mph 7.0 mph 89 % 0.00 in
01:46 52.4 °F 49.3 °F 29.90 in NE 3.0 mph 10.0 mph 89 % 0.00 in
01:51 52.4 °F 49.3 °F 29.90 in NNE 4.7 mph 9.0 mph 89 % 0.00 in
01:56 52.4 °F 49.6 °F 29.90 in ENE 3.7 mph 7.0 mph 90 % 0.00 in
02:01 52.4 °F 49.8 °F 29.90 in NE 3.6 mph 5.0 mph 91 % 0.00 in
02:06 52.4 °F 49.8 °F 29.90 in ENE 4.7 mph 9.2 mph 91 % 0.00 in
02:11 52.3 °F 49.8 °F 29.90 in NE 4.0 mph 8.1 mph 91 % 0.00 in
02:16 52.2 °F 49.7 °F 29.90 in NE 4.7 mph 10.4 mph 91 % 0.00 in
02:21 52.1 °F 49.6 °F 29.90 in NE 3.0 mph 4.6 mph 91 % 0.00 in
02:26 52.1 °F 49.6 °F 29.89 in ENE 3.4 mph 8.1 mph 91 % 0.00 in
02:31 52.1 °F 49.3 °F 29.89 in North 5.4 mph 11.0 mph 90 % 0.00 in
02:36 52.1 °F 49.3 °F 29.89 in ENE 3.3 mph 8.1 mph 90 % 0.00 in
02:41 52.2 °F 49.4 °F 29.90 in North 5.5 mph 10.4 mph 90 % 0.00 in
02:46 52.3 °F 49.5 °F 29.90 in NNE 6.1 mph 10.4 mph 90 % 0.00 in
02:51 52.3 °F 49.5 °F 29.90 in NNE 7.0 mph 11.5 mph 90 % 0.00 in
02:56 52.4 °F 49.6 °F 29.89 in NNE 5.9 mph 11.0 mph 90 % 0.00 in
03:00 52.4 °F 49.6 °F 29.90 in NNE 5.6 mph 8.1 mph 90 % 0.00 in
03:05 52.5 °F 49.9 °F 29.90 in NNE 4.4 mph 6.0 mph 91 % 0.00 in
03:10 52.5 °F 49.7 °F 29.89 in North 5.0 mph 8.1 mph 90 % 0.00 in
03:15 52.4 °F 49.6 °F 29.89 in NE 5.5 mph 10.4 mph 90 % 0.00 in
03:20 52.4 °F 49.6 °F 29.89 in NE 2.8 mph 10.4 mph 90 % 0.00 in
03:25 52.4 °F 49.6 °F 29.89 in ENE 3.7 mph 10.4 mph 90 % 0.00 in
03:30 52.4 °F 49.6 °F 29.89 in NNE 6.2 mph 11.5 mph 90 % 0.00 in
03:35 52.4 °F 49.6 °F 29.89 in NNE 3.4 mph 9.2 mph 90 % 0.00 in
03:41 52.4 °F 49.6 °F 29.89 in NE 5.0 mph 9.0 mph 90 % 0.00 in
03:46 52.4 °F 49.6 °F 29.89 in NE 5.0 mph 9.0 mph 90 % 0.00 in
03:51 52.4 °F 49.5 °F 29.89 in NNE 5.0 mph 10.0 mph 90 % 0.00 in
03:56 52.4 °F 49.6 °F 29.89 in NNE 5.0 mph 12.0 mph 90 % 0.00 in
04:01 52.4 °F 49.6 °F 29.89 in NNE 4.7 mph 9.0 mph 90 % 0.00 in
04:06 52.4 °F 49.6 °F 29.89 in North 5.2 mph 11.5 mph 90 % 0.00 in
04:11 52.4 °F 49.6 °F 29.89 in NE 5.4 mph 10.4 mph 90 % 0.00 in
04:16 52.4 °F 49.6 °F 29.89 in ENE 3.2 mph 4.6 mph 90 % 0.00 in
04:21 52.5 °F 49.9 °F 29.89 in NE 5.9 mph 10.4 mph 91 % 0.00 in
04:26 52.5 °F 49.7 °F 29.89 in NNE 4.5 mph 10.4 mph 90 % 0.00 in
04:31 52.5 °F 49.7 °F 29.89 in NE 4.0 mph 5.0 mph 90 % 0.00 in
04:36 52.5 °F 49.7 °F 29.89 in NNE 4.4 mph 10.4 mph 90 % 0.00 in
04:41 52.5 °F 49.9 °F 29.90 in NNE 4.5 mph 8.1 mph 91 % 0.00 in
04:46 52.6 °F 50.0 °F 29.90 in NE 7.4 mph 12.7 mph 91 % 0.00 in
04:51 52.5 °F 49.9 °F 29.90 in NNE 5.4 mph 9.2 mph 91 % 0.00 in
04:56 52.4 °F 49.8 °F 29.90 in NE 3.6 mph 4.6 mph 91 % 0.00 in
05:01 52.4 °F 49.8 °F 29.90 in NNE 6.2 mph 8.1 mph 91 % 0.00 in
05:06 52.4 °F 49.8 °F 29.90 in NNE 6.0 mph 8.0 mph 91 % 0.00 in
05:11 52.4 °F 49.8 °F 29.90 in NNE 5.8 mph 9.2 mph 91 % 0.00 in
05:16 52.4 °F 49.8 °F 29.90 in North 4.2 mph 6.9 mph 91 % 0.00 in
05:21 52.3 °F 49.8 °F 29.90 in NNE 5.2 mph 6.9 mph 91 % 0.00 in
05:26 52.3 °F 49.8 °F 29.90 in NNE 3.6 mph 5.8 mph 91 % 0.00 in
05:32 52.4 °F 49.8 °F 29.90 in NE 3.1 mph 6.9 mph 91 % 0.00 in
05:37 52.4 °F 49.8 °F 29.90 in North 2.9 mph 6.9 mph 91 % 0.00 in
05:42 52.3 °F 49.8 °F 29.90 in NNE 5.1 mph 8.0 mph 91 % 0.00 in
05:47 52.4 °F 50.1 °F 29.90 in NNE 4.5 mph 8.1 mph 92 % 0.00 in
05:52 52.4 °F 50.1 °F 29.90 in NNE 4.2 mph 10.4 mph 92 % 0.00 in
05:57 52.4 °F 50.1 °F 29.90 in North 4.0 mph 8.1 mph 92 % 0.00 in
06:02 52.4 °F 49.8 °F 29.91 in NE 3.6 mph 8.0 mph 91 % 0.00 in
06:07 52.5 °F 50.2 °F 29.91 in NNE 3.0 mph 3.5 mph 92 % 0.00 in
06:12 52.5 °F 49.9 °F 29.91 in NNE 5.5 mph 9.2 mph 91 % 0.00 in
06:17 52.6 °F 50.0 °F 29.91 in NNE 3.4 mph 5.8 mph 91 % 0.00 in
06:22 52.6 °F 50.0 °F 29.92 in NNE 2.1 mph 5.0 mph 91 % 0.00 in
06:27 52.6 °F 50.0 °F 29.92 in North 3.7 mph 8.0 mph 91 % 0.00 in
06:32 52.7 °F 50.4 °F 29.92 in NNE 2.8 mph 4.6 mph 92 % 0.00 in
06:37 52.7 °F 50.4 °F 29.92 in NNE 3.8 mph 5.8 mph 92 % 0.00 in
06:42 52.8 °F 50.5 °F 29.92 in North 3.2 mph 5.8 mph 92 % 0.00 in
06:47 52.8 °F 50.5 °F 29.92 in ENE 1.7 mph 3.5 mph 92 % 0.00 in
06:52 52.9 °F 50.6 °F 29.92 in NNE 3.7 mph 4.6 mph 92 % 0.00 in
06:57 53.0 °F 50.7 °F 29.92 in NNE 2.9 mph 5.0 mph 92 % 0.00 in
06:58 53.0 °F 50.7 °F 29.92 in NNE 3.7 mph 5.0 mph 92 % 0.00 in
07:03 53.0 °F 50.7 °F 29.93 in North 4.4 mph 5.8 mph 92 % 0.00 in
07:08 53.1 °F 50.8 °F 29.92 in NNE 3.3 mph 5.8 mph 92 % 0.00 in
07:13 53.3 °F 50.7 °F 29.93 in NE 2.3 mph 5.8 mph 91 % 0.00 in
07:18 53.4 °F 50.8 °F 29.93 in NNE 3.6 mph 5.0 mph 91 % 0.00 in
07:23 53.5 °F 50.9 °F 29.93 in North 2.3 mph 4.6 mph 91 % 0.00 in
07:28 53.6 °F 51.0 °F 29.93 in NNE 1.1 mph 3.5 mph 91 % 0.00 in
07:33 53.8 °F 51.2 °F 29.93 in NNE 3.5 mph 4.6 mph 91 % 0.00 in
07:38 54.0 °F 51.4 °F 29.93 in ENE 1.8 mph 3.5 mph 91 % 0.00 in
07:43 54.2 °F 51.6 °F 29.93 in NNE 4.6 mph 6.9 mph 91 % 0.00 in
07:48 54.4 °F 51.5 °F 29.93 in NNE 1.0 mph 3.5 mph 90 % 0.00 in
07:53 54.5 °F 51.6 °F 29.93 in NNW 3.5 mph 5.0 mph 90 % 0.00 in
07:58 54.7 °F 51.5 °F 29.94 in NNE 1.6 mph 3.5 mph 89 % 0.00 in
08:03 55.0 °F 51.8 °F 29.94 in South 1.2 mph 2.3 mph 89 % 0.00 in
08:08 55.2 °F 52.0 °F 29.94 in North 1.1 mph 5.0 mph 89 % 0.00 in
08:13 55.5 °F 52.3 °F 29.94 in NE 0.6 mph 4.0 mph 89 % 0.00 in
08:18 55.8 °F 52.3 °F 29.94 in NNE 0.9 mph 3.5 mph 88 % 0.00 in
08:23 56.1 °F 52.3 °F 29.95 in North 2.2 mph 3.5 mph 87 % 0.00 in
08:27 56.4 °F 52.6 °F 29.95 in NW 2.1 mph 3.5 mph 87 % 0.00 in
08:32 56.6 °F 52.1 °F 29.95 in WNW 1.8 mph 4.6 mph 85 % 0.00 in
08:37 56.7 °F 52.2 °F 29.95 in NNW 2.4 mph 3.5 mph 85 % 0.00 in
08:42 56.9 °F 52.4 °F 29.95 in North 2.8 mph 4.6 mph 85 % 0.00 in
08:47 57.2 °F 52.7 °F 29.95 in NW 0.7 mph 3.5 mph 85 % 0.00 in
08:52 57.4 °F 52.6 °F 29.95 in NNE 2.8 mph 5.8 mph 84 % 0.00 in
08:57 57.6 °F 52.8 °F 29.96 in NNE 2.2 mph 3.5 mph 84 % 0.00 in
09:02 57.8 °F 53.0 °F 29.96 in NNE 1.0 mph 3.0 mph 84 % 0.00 in
09:07 58.0 °F 52.9 °F 29.96 in NNW 1.5 mph 3.5 mph 83 % 0.00 in
09:12 58.1 °F 53.0 °F 29.96 in NNW 0.4 mph 2.0 mph 83 % 0.00 in
09:17 58.2 °F 52.7 °F 29.96 in North 1.5 mph 4.0 mph 82 % 0.00 in
09:22 58.3 °F 53.2 °F 29.96 in NNW 0.5 mph 1.2 mph 83 % 0.00 in
09:27 58.5 °F 53.4 °F 29.96 in NNW 0.4 mph 2.0 mph 83 % 0.00 in
09:32 58.7 °F 53.5 °F 29.96 in NNW 0.6 mph 2.3 mph 83 % 0.00 in
09:38 58.8 °F 53.6 °F 29.96 in NNW 1.0 mph 2.3 mph 83 % 0.00 in
09:43 59.0 °F 53.8 °F 29.95 in NNW 2.4 mph 3.5 mph 83 % 0.00 in
09:48 59.1 °F 53.6 °F 29.95 in NW 0.1 mph 1.2 mph 82 % 0.00 in
09:53 59.3 °F 53.5 °F 29.95 in NW 0.5 mph 2.0 mph 81 % 0.00 in
09:58 59.4 °F 53.2 °F 29.95 in NW 0.4 mph 2.3 mph 80 % 0.00 in
10:03 59.6 °F 53.4 °F 29.95 in NW 0.3 mph 1.2 mph 80 % 0.00 in
10:08 59.9 °F 54.4 °F 29.95 in Calm     82 % 0.00 in
10:13 60.2 °F 54.3 °F 29.95 in North 0.3 mph 1.2 mph 81 % 0.00 in
10:18 60.7 °F 54.8 °F 29.95 in Calm     81 % 0.00 in
10:23 61.0 °F 54.1 °F 29.95 in NNE 0.1 mph 3.5 mph 78 % 0.00 in
10:28 61.3 °F 54.0 °F 29.95 in NNE 2.2 mph 4.0 mph 77 % 0.00 in
10:33 61.6 °F 54.0 °F 29.95 in NNE 0.2 mph 1.2 mph 76 % 0.00 in
10:38 61.8 °F 54.5 °F 29.96 in North 1.0 mph 2.3 mph 77 % 0.00 in
10:43 62.2 °F 54.9 °F 29.95 in NNE 0.1 mph 3.5 mph 77 % 0.00 in
10:48 62.7 °F 55.4 °F 29.95 in NNW 1.7 mph 2.3 mph 77 % 0.00 in
10:53 63.5 °F 55.8 °F 29.95 in North 2.8 mph 3.5 mph 76 % 0.00 in
10:58 64.2 °F 55.4 °F 29.95 in North 1.4 mph 3.5 mph 73 % 0.00 in
11:03 65.0 °F 56.1 °F 29.96 in NE 1.3 mph 2.0 mph 73 % 0.00 in
11:08 65.5 °F 55.8 °F 29.96 in NE 1.0 mph 3.5 mph 71 % 0.00 in
11:14 65.6 °F 55.5 °F 29.96 in NNE 0.1 mph 2.3 mph 70 % 0.00 in
11:19 65.8 °F 55.7 °F 29.96 in NNE 1.8 mph 3.5 mph 70 % 0.00 in
11:24 66.0 °F 55.9 °F 29.96 in NE 0.7 mph 3.5 mph 70 % 0.00 in
11:29 66.2 °F 55.7 °F 29.95 in NE 1.2 mph 3.5 mph 69 % 0.00 in
11:34 66.3 °F 56.2 °F 29.95 in NE 0.4 mph 2.3 mph 70 % 0.00 in
11:39 66.5 °F 56.4 °F 29.95 in SE 0.2 mph 1.2 mph 70 % 0.00 in
11:44 66.3 °F 54.6 °F 29.95 in NE 1.3 mph 3.5 mph 66 % 0.00 in
11:54 65.9 °F 55.0 °F 29.95 in ENE 0.8 mph 3.0 mph 68 % 0.00 in
11:59 65.9 °F 54.2 °F 29.95 in ENE 1.0 mph 3.5 mph 66 % 0.00 in
12:04 66.0 °F 54.3 °F 29.95 in ENE 1.7 mph 4.0 mph 66 % 0.00 in
12:09 66.3 °F 56.6 °F 29.95 in NNE 1.3 mph 4.0 mph 71 % 0.00 in
12:14 66.6 °F 57.3 °F 29.95 in NNE 0.5 mph 2.3 mph 72 % 0.00 in
12:19 67.0 °F 54.4 °F 29.95 in ENE 1.8 mph 3.5 mph 64 % 0.00 in
12:25 68.1 °F 58.3 °F 29.95 in Calm   1.2 mph 71 % 0.00 in
12:30 68.9 °F 55.8 °F 29.94 in Calm   1.2 mph 63 % 0.00 in
12:35 69.7 °F 56.5 °F 29.94 in ENE 2.5 mph 4.6 mph 63 % 0.00 in
12:40 70.1 °F 55.1 °F 29.94 in NE 0.8 mph 2.3 mph 59 % 0.00 in
12:45 70.4 °F 55.4 °F 29.94 in ENE 1.8 mph 3.5 mph 59 % 0.00 in
12:50 70.6 °F 55.6 °F 29.94 in NE 3.4 mph 5.8 mph 59 % 0.00 in
12:55 70.9 °F 55.4 °F 29.94 in Calm   1.2 mph 58 % 0.00 in
13:00 71.0 °F 55.5 °F 29.94 in NE 0.4 mph 5.8 mph 58 % 0.00 in
13:05 70.9 °F 54.4 °F 29.94 in NE 0.5 mph 3.5 mph 56 % 0.00 in
13:10 70.9 °F 54.9 °F 29.94 in ENE 0.7 mph 3.5 mph 57 % 0.00 in
13:15 70.8 °F 53.8 °F 29.94 in ENE 2.5 mph 3.5 mph 55 % 0.00 in
13:20 71.0 °F 53.5 °F 29.94 in ENE 0.8 mph 4.6 mph 54 % 0.00 in
13:25 71.2 °F 55.7 °F 29.94 in ENE 1.9 mph 4.0 mph 58 % 0.00 in
13:30 70.8 °F 53.8 °F 29.94 in NE 2.1 mph 4.0 mph 55 % 0.00 in
13:35 70.7 °F 53.2 °F 29.94 in ENE 1.6 mph 3.5 mph 54 % 0.00 in
13:40 70.8 °F 53.3 °F 29.94 in East 0.4 mph 4.6 mph 54 % 0.00 in
13:41 70.8 °F 55.3 °F 29.94 in ENE 2.0 mph 3.5 mph 58 % 0.00 in
13:46 70.9 °F 55.4 °F 29.94 in NNE 2.3 mph 5.8 mph 58 % 0.00 in
13:51 71.0 °F 55.9 °F 29.94 in North 0.5 mph 2.3 mph 59 % 0.00 in
13:56 71.1 °F 55.6 °F 29.94 in Calm   1.2 mph 58 % 0.00 in
14:01 71.5 °F 56.9 °F 29.94 in NNE 1.9 mph 5.0 mph 60 % 0.00 in
14:06 71.8 °F 55.7 °F 29.94 in North 0.9 mph 3.0 mph 57 % 0.00 in
14:11 71.7 °F 55.7 °F 29.94 in NNE 4.4 mph 6.0 mph 57 % 0.00 in
14:16 71.8 °F 57.6 °F 29.94 in North 2.0 mph 5.8 mph 61 % 0.00 in
14:21 72.1 °F 56.0 °F 29.95 in NNE 2.5 mph 5.0 mph 57 % 0.00 in
14:26 72.3 °F 57.2 °F 29.95 in NNE 2.1 mph 3.5 mph 59 % 0.00 in
14:31 72.7 °F 55.6 °F 29.94 in North 2.4 mph 6.9 mph 55 % 0.00 in
14:36 73.0 °F 54.9 °F 29.94 in WNW 0.2 mph 5.8 mph 53 % 0.00 in
14:42 73.0 °F 55.9 °F 29.94 in NNE 0.2 mph 3.5 mph 55 % 0.00 in
14:47 73.2 °F 56.1 °F 29.94 in WNW 1.3 mph 3.5 mph 55 % 0.00 in
14:52 73.5 °F 56.3 °F 29.94 in NW 2.2 mph 4.0 mph 55 % 0.00 in
14:53 73.5 °F 54.8 °F 29.94 in NW 2.2 mph 4.0 mph 52 % 0.00 in
14:58 73.7 °F 55.5 °F 29.94 in North 2.6 mph 4.6 mph 53 % 0.00 in
15:03 73.7 °F 56.5 °F 29.94 in NNW 1.0 mph 2.3 mph 55 % 0.00 in
15:08 73.8 °F 56.1 °F 29.94 in NE 1.2 mph 4.6 mph 54 % 0.00 in
15:13 73.7 °F 55.0 °F 29.94 in NNW 3.4 mph 6.9 mph 52 % 0.00 in
15:18 73.7 °F 52.2 °F 29.95 in NNW 2.4 mph 3.5 mph 47 % 0.00 in
15:23 73.5 °F 51.4 °F 29.94 in Calm   1.0 mph 46 % 0.00 in
15:28 73.5 °F 54.3 °F 29.94 in NNE 2.3 mph 4.6 mph 51 % 0.00 in
15:33 73.6 °F 53.8 °F 29.94 in WNW 3.3 mph 4.6 mph 50 % 0.00 in
15:38 73.8 °F 54.0 °F 29.94 in NW 1.5 mph 4.0 mph 50 % 0.00 in
15:43 73.7 °F 53.9 °F 29.95 in North 1.2 mph 3.5 mph 50 % 0.00 in
15:48 73.4 °F 52.5 °F 29.95 in NNW 3.6 mph 6.9 mph 48 % 0.00 in
15:53 73.2 °F 53.4 °F 29.94 in NW 3.1 mph 6.9 mph 50 % 0.00 in
15:58 73.1 °F 53.4 °F 29.95 in WNW 3.4 mph 4.6 mph 50 % 0.00 in
16:03 73.2 °F 54.5 °F 29.95 in North 1.4 mph 3.0 mph 52 % 0.00 in
16:08 73.0 °F 51.6 °F 29.95 in NNW 0.7 mph 3.5 mph 47 % 0.00 in
16:14 72.9 °F 53.2 °F 29.95 in NNE 0.7 mph 3.5 mph 50 % 0.00 in
16:19 72.7 °F 53.0 °F 29.95 in North 1.8 mph 3.5 mph 50 % 0.00 in
16:24 72.4 °F 52.7 °F 29.95 in WNW 2.6 mph 3.5 mph 50 % 0.00 in
16:29 72.4 °F 53.2 °F 29.95 in WNW 1.3 mph 3.5 mph 51 % 0.00 in
16:34 72.3 °F 51.5 °F 29.95 in NW 2.1 mph 3.5 mph 48 % 0.00 in
16:39 72.2 °F 53.6 °F 29.95 in NNE 0.8 mph 3.5 mph 52 % 0.00 in
16:44 71.8 °F 52.2 °F 29.95 in North 1.2 mph 3.5 mph 50 % 0.00 in
16:49 71.6 °F 52.5 °F 29.95 in WNW 1.7 mph 3.5 mph 51 % 0.00 in
16:54 71.4 °F 51.8 °F 29.95 in WNW 1.6 mph 2.3 mph 50 % 0.00 in
16:59 71.2 °F 52.1 °F 29.96 in WNW 1.2 mph 3.5 mph 51 % 0.00 in
17:00 71.2 °F 52.1 °F 29.95 in WNW 1.7 mph 4.0 mph 51 % 0.00 in
17:05 71.0 °F 53.5 °F 29.96 in WNW 0.1 mph 1.2 mph 54 % 0.00 in
17:10 70.8 °F 53.3 °F 29.96 in North 0.5 mph 3.5 mph 54 % 0.00 in
17:15 70.6 °F 55.1 °F 29.96 in NNW 0.9 mph 3.5 mph 58 % 0.00 in
17:20 70.5 °F 53.1 °F 29.95 in WNW 2.0 mph 3.5 mph 54 % 0.00 in
17:25 70.4 °F 52.4 °F 29.95 in WNW 1.0 mph 3.5 mph 53 % 0.00 in
17:30 70.3 °F 53.9 °F 29.96 in NW 0.1 mph 1.2 mph 56 % 0.00 in
17:35 70.2 °F 52.8 °F 29.95 in Calm   1.0 mph 54 % 0.00 in
17:40 70.1 °F 52.7 °F 29.95 in NNW 1.1 mph 2.3 mph 54 % 0.00 in
17:45 69.9 °F 52.5 °F 29.95 in NNW 0.3 mph 2.3 mph 54 % 0.00 in
17:50 69.8 °F 52.9 °F 29.95 in Calm     55 % 0.00 in
17:55 69.7 °F 51.3 °F 29.95 in NNW 0.1 mph 1.0 mph 52 % 0.00 in
18:00 69.6 °F 52.2 °F 29.95 in NNW 0.3 mph 1.2 mph 54 % 0.00 in
18:05 69.5 °F 51.6 °F 29.95 in NNW 0.8 mph 2.3 mph 53 % 0.00 in
18:10 69.4 °F 52.5 °F 29.96 in NW 0.8 mph 2.3 mph 55 % 0.00 in
18:15 69.4 °F 52.5 °F 29.95 in Calm     55 % 0.00 in
18:20 69.3 °F 51.4 °F 29.95 in West 1.0 mph 3.5 mph 53 % 0.00 in
18:25 69.2 °F 50.8 °F 29.95 in West 1.6 mph 3.5 mph 52 % 0.00 in
18:30 69.1 °F 50.7 °F 29.95 in West 0.6 mph 2.0 mph 52 % 0.00 in
18:35 68.9 °F 50.5 °F 29.95 in WNW 1.4 mph 3.5 mph 52 % 0.00 in
18:40 68.8 °F 51.0 °F 29.95 in WNW 1.0 mph 2.3 mph 53 % 0.00 in
18:45 68.7 °F 51.4 °F 29.95 in WSW 0.4 mph 2.3 mph 54 % 0.00 in
18:50 68.6 °F 50.8 °F 29.96 in WSW 1.8 mph 3.5 mph 53 % 0.00 in
18:55 68.5 °F 51.7 °F 29.96 in WSW 0.5 mph 1.2 mph 55 % 0.00 in
19:01 68.4 °F 52.1 °F 29.96 in NW 0.5 mph 3.5 mph 56 % 0.00 in
19:06 68.4 °F 52.1 °F 29.95 in Calm     56 % 0.00 in
19:11 68.3 °F 52.5 °F 29.96 in NW 1.0 mph 3.0 mph 57 % 0.00 in
19:16 68.2 °F 52.9 °F 29.95 in WSW 1.0 mph 4.0 mph 58 % 0.00 in
19:21 68.1 °F 52.8 °F 29.96 in SW 1.0 mph 3.0 mph 58 % 0.00 in
19:26 68.0 °F 52.7 °F 29.95 in WSW 1.0 mph 3.0 mph 58 % 0.00 in
19:31 67.9 °F 53.0 °F 29.95 in West 1.2 mph 2.3 mph 59 % 0.00 in
19:36 67.8 °F 52.9 °F 29.96 in West 1.0 mph 5.0 mph 59 % 0.00 in
19:41 67.7 °F 52.9 °F 29.96 in WSW 0.4 mph 3.5 mph 59 % 0.00 in
19:46 67.5 °F 53.1 °F 29.96 in West 1.0 mph 4.0 mph 60 % 0.00 in
19:51 67.3 °F 53.4 °F 29.96 in WNW 2.0 mph 3.0 mph 61 % 0.00 in
19:56 67.1 °F 53.2 °F 29.96 in West 1.0 mph 5.0 mph 61 % 0.00 in
20:01 66.9 °F 53.5 °F 29.96 in WSW 0.1 mph   62 % 0.00 in
20:06 66.6 °F 54.1 °F 29.96 in Calm   3.0 mph 64 % 0.00 in
20:11 66.3 °F 54.2 °F 29.96 in Calm   1.2 mph 65 % 0.00 in
20:16 66.0 °F 54.3 °F 29.96 in Calm     66 % 0.00 in
20:21 65.6 °F 54.3 °F 29.96 in Calm     67 % 0.00 in
20:26 65.1 °F 54.3 °F 29.97 in Calm   1.2 mph 68 % 0.00 in
20:31 64.7 °F 54.7 °F 29.97 in Calm     70 % 0.00 in
20:36 64.3 °F 54.7 °F 29.97 in Calm     71 % 0.00 in
20:41 63.9 °F 54.3 °F 29.97 in Calm     71 % 0.00 in
20:46 63.5 °F 54.3 °F 29.97 in Calm   1.2 mph 72 % 0.00 in
20:48 63.4 °F 54.2 °F 29.97 in WSW 0.1 mph 1.2 mph 72 % 0.00 in
20:53 63.1 °F 54.3 °F 29.97 in Calm     73 % 0.00 in
20:58 62.8 °F 54.0 °F 29.97 in WSW 0.1 mph 1.2 mph 73 % 0.00 in
21:03 62.6 °F 54.2 °F 29.97 in Calm     74 % 0.00 in
21:08 62.4 °F 54.0 °F 29.97 in Calm     74 % 0.00 in
21:13 62.1 °F 54.1 °F 29.98 in Calm     75 % 0.00 in
21:18 61.7 °F 54.1 °F 29.97 in Calm     76 % 0.00 in
21:23 61.4 °F 53.8 °F 29.98 in Calm   1.2 mph 76 % 0.00 in
21:28 61.2 °F 53.6 °F 29.98 in Calm   1.2 mph 76 % 0.00 in
21:33 60.9 °F 53.3 °F 29.98 in Calm     76 % 0.00 in
21:38 60.6 °F 53.0 °F 29.98 in Calm   1.2 mph 76 % 0.00 in
21:43 60.4 °F 52.8 °F 29.98 in Calm     76 % 0.00 in
21:48 60.1 °F 52.5 °F 29.98 in Calm     76 % 0.00 in
21:53 59.9 °F 52.7 °F 29.98 in WSW 0.1 mph   77 % 0.00 in
21:58 59.7 °F 52.5 °F 29.98 in Calm     77 % 0.00 in
22:03 59.6 °F 52.4 °F 29.98 in Calm   1.2 mph 77 % 0.00 in
22:08 59.4 °F 52.5 °F 29.98 in Calm     78 % 0.00 in
22:13 59.2 °F 52.3 °F 29.98 in Calm   2.3 mph 78 % 0.00 in
22:18 59.0 °F 52.5 °F 29.98 in Calm     79 % 0.00 in
22:23 58.8 °F 52.6 °F 29.98 in Calm     80 % 0.00 in
22:28 58.6 °F 52.4 °F 29.98 in Calm   2.3 mph 80 % 0.00 in
22:33 58.4 °F 52.6 °F 29.98 in WSW 0.3 mph 1.2 mph 81 % 0.00 in
22:38 58.2 °F 52.1 °F 29.98 in WSW 0.2 mph 1.2 mph 80 % 0.00 in
22:43 58.0 °F 52.2 °F 29.99 in Calm     81 % 0.00 in
22:49 57.8 °F 52.0 °F 29.99 in WSW 1.3 mph 3.5 mph 81 % 0.00 in
22:53 57.7 °F 52.2 °F 29.99 in WSW 1.3 mph 2.3 mph 82 % 0.00 in
22:58 57.5 °F 51.7 °F 29.99 in WSW 1.6 mph 2.3 mph 81 % 0.00 in
23:03 57.3 °F 51.5 °F 29.98 in WSW 1.1 mph 2.3 mph 81 % 0.00 in
23:08 57.2 °F 51.8 °F 29.99 in Calm   1.2 mph 82 % 0.00 in
23:13 57.1 °F 51.7 °F 29.99 in Calm   1.2 mph 82 % 0.00 in
23:19 56.9 °F 51.5 °F 29.99 in Calm     82 % 0.00 in
23:24 56.7 °F 51.6 °F 29.99 in WSW 0.3 mph 1.2 mph 83 % 0.00 in
23:29 56.6 °F 51.5 °F 29.99 in Calm   1.2 mph 83 % 0.00 in
23:34 56.5 °F 51.1 °F 29.99 in Calm     82 % 0.00 in
23:39 56.3 °F 51.2 °F 29.99 in Calm   1.2 mph 83 % 0.00 in
23:44 56.2 °F 51.1 °F 29.99 in WSW 0.2 mph 1.2 mph 83 % 0.00 in
23:49 56.1 °F 51.0 °F 29.99 in Calm     83 % 0.00 in
23:54 56.0 °F 50.9 °F 29.99 in Calm     83 % 0.00 in
23:59 56.0 °F 51.2 °F 29.99 in Calm     84 % 0.00 in
Crab Meadow Weather
Compliments of Weather Underground - 3 mb

Script developed by  Jim McMurry - jmcmurry@mwt.net Adapted for the template by  Wim van der Kuil - Leuven-Template.eu

Lightning: At any given moment, there are about 1,800 thunderstorms happening around the world. Approximately 100 lightning bolts strike the earth every second.